sensor_id;sensor_type;location;lat;lon;timestamp;temperature;humidity
21255;DHT22;10785;50.674;17.954;2022-09-19T00:02:01;8.20;99.90
21255;DHT22;10785;50.674;17.954;2022-09-19T00:04:31;8.20;99.90
21255;DHT22;10785;50.674;17.954;2022-09-19T00:07:01;8.20;99.90
21255;DHT22;10785;50.674;17.954;2022-09-19T00:09:32;8.10;99.90
21255;DHT22;10785;50.674;17.954;2022-09-19T00:12:02;8.20;99.90
21255;DHT22;10785;50.674;17.954;2022-09-19T00:14:32;8.10;99.90
21255;DHT22;10785;50.674;17.954;2022-09-19T00:17:05;8.20;99.90
21255;DHT22;10785;50.674;17.954;2022-09-19T00:19:35;8.20;99.90
21255;DHT22;10785;50.674;17.954;2022-09-19T00:22:04;8.20;99.90
21255;DHT22;10785;50.674;17.954;2022-09-19T00:24:34;8.10;99.90
21255;DHT22;10785;50.674;17.954;2022-09-19T00:27:18;8.10;99.90
21255;DHT22;10785;50.674;17.954;2022-09-19T00:29:49;8.10;99.90
21255;DHT22;10785;50.674;17.954;2022-09-19T00:32:20;8.00;99.90
21255;DHT22;10785;50.674;17.954;2022-09-19T00:34:51;8.00;99.90
21255;DHT22;10785;50.674;17.954;2022-09-19T00:37:23;7.90;99.90
21255;DHT22;10785;50.674;17.954;2022-09-19T00:39:55;7.90;99.90
21255;DHT22;10785;50.674;17.954;2022-09-19T00:42:25;8.00;99.90
21255;DHT22;10785;50.674;17.954;2022-09-19T00:44:57;8.00;99.90
21255;DHT22;10785;50.674;17.954;2022-09-19T00:47:34;8.00;99.90
21255;DHT22;10785;50.674;17.954;2022-09-19T00:50:12;8.10;99.90
21255;DHT22;10785;50.674;17.954;2022-09-19T00:52:47;8.10;99.90
21255;DHT22;10785;50.674;17.954;2022-09-19T00:55:17;8.10;99.90
21255;DHT22;10785;50.674;17.954;2022-09-19T00:57:59;8.10;99.90
21255;DHT22;10785;50.674;17.954;2022-09-19T01:00:29;8.10;99.90
21255;DHT22;10785;50.674;17.954;2022-09-19T01:03:05;8.20;99.90
21255;DHT22;10785;50.674;17.954;2022-09-19T01:05:47;8.20;99.90
21255;DHT22;10785;50.674;17.954;2022-09-19T01:08:32;8.20;99.90
21255;DHT22;10785;50.674;17.954;2022-09-19T01:11:22;8.20;99.90
21255;DHT22;10785;50.674;17.954;2022-09-19T01:14:07;8.10;99.90
21255;DHT22;10785;50.674;17.954;2022-09-19T01:16:41;8.20;99.90
21255;DHT22;10785;50.674;17.954;2022-09-19T01:19:31;8.10;99.90
21255;DHT22;10785;50.674;17.954;2022-09-19T01:22:08;8.10;99.90
21255;DHT22;10785;50.674;17.954;2022-09-19T01:24:59;8.00;99.90
21255;DHT22;10785;50.674;17.954;2022-09-19T01:27:54;7.90;99.90
21255;DHT22;10785;50.674;17.954;2022-09-19T01:30:26;7.90;99.90
21255;DHT22;10785;50.674;17.954;2022-09-19T01:33:06;7.80;99.90
21255;DHT22;10785;50.674;17.954;2022-09-19T01:35:39;7.70;99.90
21255;DHT22;10785;50.674;17.954;2022-09-19T01:38:12;7.70;99.90
21255;DHT22;10785;50.674;17.954;2022-09-19T01:40:45;7.60;99.90
21255;DHT22;10785;50.674;17.954;2022-09-19T01:43:16;7.60;99.90
21255;DHT22;10785;50.674;17.954;2022-09-19T01:45:47;7.60;99.90
21255;DHT22;10785;50.674;17.954;2022-09-19T01:48:28;7.50;99.90
21255;DHT22;10785;50.674;17.954;2022-09-19T01:51:11;7.50;99.90
21255;DHT22;10785;50.674;17.954;2022-09-19T01:54:01;7.40;99.90
21255;DHT22;10785;50.674;17.954;2022-09-19T01:57:12;7.40;99.90
21255;DHT22;10785;50.674;17.954;2022-09-19T01:59:55;7.30;99.90
21255;DHT22;10785;50.674;17.954;2022-09-19T02:02:37;7.30;99.90
21255;DHT22;10785;50.674;17.954;2022-09-19T02:05:10;7.30;99.90
21255;DHT22;10785;50.674;17.954;2022-09-19T02:07:46;7.20;99.90
21255;DHT22;10785;50.674;17.954;2022-09-19T02:10:22;7.30;99.90
21255;DHT22;10785;50.674;17.954;2022-09-19T02:12:55;7.30;99.90
21255;DHT22;10785;50.674;17.954;2022-09-19T02:15:51;7.40;99.90
21255;DHT22;10785;50.674;17.954;2022-09-19T02:18:26;7.40;99.90
21255;DHT22;10785;50.674;17.954;2022-09-19T02:21:00;7.50;99.90
21255;DHT22;10785;50.674;17.954;2022-09-19T02:23:33;7.50;99.90
21255;DHT22;10785;50.674;17.954;2022-09-19T02:26:06;7.60;99.90
21255;DHT22;10785;50.674;17.954;2022-09-19T02:28:44;7.60;99.90
21255;DHT22;10785;50.674;17.954;2022-09-19T02:31:18;7.60;99.90
21255;DHT22;10785;50.674;17.954;2022-09-19T02:33:51;7.50;99.90
21255;DHT22;10785;50.674;17.954;2022-09-19T02:36:24;7.70;99.90
21255;DHT22;10785;50.674;17.954;2022-09-19T02:39:00;7.60;99.90
21255;DHT22;10785;50.674;17.954;2022-09-19T02:41:56;7.60;99.90
21255;DHT22;10785;50.674;17.954;2022-09-19T02:44:32;7.50;99.90
21255;DHT22;10785;50.674;17.954;2022-09-19T02:47:11;7.50;99.90
21255;DHT22;10785;50.674;17.954;2022-09-19T02:49:47;7.50;99.90
21255;DHT22;10785;50.674;17.954;2022-09-19T02:52:21;7.50;99.90
21255;DHT22;10785;50.674;17.954;2022-09-19T02:54:55;7.50;99.90
21255;DHT22;10785;50.674;17.954;2022-09-19T02:57:30;7.50;99.90
21255;DHT22;10785;50.674;17.954;2022-09-19T03:00:04;7.40;99.90
21255;DHT22;10785;50.674;17.954;2022-09-19T03:02:43;7.40;99.90
21255;DHT22;10785;50.674;17.954;2022-09-19T03:05:16;7.40;99.90
21255;DHT22;10785;50.674;17.954;2022-09-19T03:07:54;7.40;99.90
21255;DHT22;10785;50.674;17.954;2022-09-19T03:10:28;7.50;99.90
21255;DHT22;10785;50.674;17.954;2022-09-19T03:13:23;7.60;99.90
21255;DHT22;10785;50.674;17.954;2022-09-19T03:16:05;7.60;99.90
21255;DHT22;10785;50.674;17.954;2022-09-19T03:18:41;7.60;99.90
21255;DHT22;10785;50.674;17.954;2022-09-19T03:21:19;7.70;99.90
21255;DHT22;10785;50.674;17.954;2022-09-19T03:23:51;7.70;99.90
21255;DHT22;10785;50.674;17.954;2022-09-19T03:26:26;7.70;99.90
21255;DHT22;10785;50.674;17.954;2022-09-19T03:28:55;7.70;99.90
21255;DHT22;10785;50.674;17.954;2022-09-19T03:31:32;7.80;99.90
21255;DHT22;10785;50.674;17.954;2022-09-19T03:34:06;7.80;99.90
21255;DHT22;10785;50.674;17.954;2022-09-19T03:36:35;7.80;99.90
21255;DHT22;10785;50.674;17.954;2022-09-19T03:39:06;7.80;99.90
21255;DHT22;10785;50.674;17.954;2022-09-19T03:41:40;7.80;99.90
21255;DHT22;10785;50.674;17.954;2022-09-19T03:44:10;7.80;99.90
21255;DHT22;10785;50.674;17.954;2022-09-19T03:46:40;7.80;99.90
21255;DHT22;10785;50.674;17.954;2022-09-19T03:49:16;7.90;99.90
21255;DHT22;10785;50.674;17.954;2022-09-19T03:51:46;7.90;99.90
21255;DHT22;10785;50.674;17.954;2022-09-19T03:54:17;7.90;99.90
21255;DHT22;10785;50.674;17.954;2022-09-19T03:56:52;7.90;99.90
21255;DHT22;10785;50.674;17.954;2022-09-19T03:59:23;8.00;99.90
21255;DHT22;10785;50.674;17.954;2022-09-19T04:02:06;8.00;99.90
21255;DHT22;10785;50.674;17.954;2022-09-19T04:04:39;8.00;99.90
21255;DHT22;10785;50.674;17.954;2022-09-19T04:07:14;8.10;99.90
21255;DHT22;10785;50.674;17.954;2022-09-19T04:09:44;8.00;99.90
21255;DHT22;10785;50.674;17.954;2022-09-19T04:12:13;8.10;99.90
21255;DHT22;10785;50.674;17.954;2022-09-19T04:14:43;8.10;99.90
21255;DHT22;10785;50.674;17.954;2022-09-19T04:17:13;8.10;99.90
21255;DHT22;10785;50.674;17.954;2022-09-19T04:19:54;8.10;99.90
21255;DHT22;10785;50.674;17.954;2022-09-19T04:22:34;8.10;99.90
21255;DHT22;10785;50.674;17.954;2022-09-19T04:25:23;8.10;99.90
21255;DHT22;10785;50.674;17.954;2022-09-19T04:28:00;8.10;99.90
21255;DHT22;10785;50.674;17.954;2022-09-19T04:30:35;8.10;99.90
21255;DHT22;10785;50.674;17.954;2022-09-19T04:33:07;8.10;99.90
21255;DHT22;10785;50.674;17.954;2022-09-19T04:35:40;8.10;99.90
21255;DHT22;10785;50.674;17.954;2022-09-19T04:38:14;8.00;99.90
21255;DHT22;10785;50.674;17.954;2022-09-19T04:40:48;8.10;99.90
21255;DHT22;10785;50.674;17.954;2022-09-19T04:43:26;8.10;99.90
21255;DHT22;10785;50.674;17.954;2022-09-19T04:46:13;8.10;99.90
21255;DHT22;10785;50.674;17.954;2022-09-19T04:48:49;8.10;99.90
21255;DHT22;10785;50.674;17.954;2022-09-19T04:51:26;8.20;99.90
21255;DHT22;10785;50.674;17.954;2022-09-19T04:53:59;8.20;99.90
21255;DHT22;10785;50.674;17.954;2022-09-19T04:56:28;8.20;99.90
21255;DHT22;10785;50.674;17.954;2022-09-19T04:58:57;8.20;99.90
21255;DHT22;10785;50.674;17.954;2022-09-19T05:01:27;8.20;99.90
21255;DHT22;10785;50.674;17.954;2022-09-19T05:03:58;8.30;99.90
21255;DHT22;10785;50.674;17.954;2022-09-19T05:06:29;8.30;99.90
21255;DHT22;10785;50.674;17.954;2022-09-19T05:08:58;8.30;99.90
21255;DHT22;10785;50.674;17.954;2022-09-19T05:11:31;8.30;99.90
21255;DHT22;10785;50.674;17.954;2022-09-19T05:14:01;8.40;99.90
21255;DHT22;10785;50.674;17.954;2022-09-19T05:16:34;8.40;99.90
21255;DHT22;10785;50.674;17.954;2022-09-19T05:19:04;8.50;99.90
21255;DHT22;10785;50.674;17.954;2022-09-19T05:21:34;8.60;99.90
21255;DHT22;10785;50.674;17.954;2022-09-19T05:24:04;8.60;99.90
21255;DHT22;10785;50.674;17.954;2022-09-19T05:26:35;8.70;99.90
21255;DHT22;10785;50.674;17.954;2022-09-19T05:29:12;8.70;99.90
21255;DHT22;10785;50.674;17.954;2022-09-19T05:32:01;8.70;99.90
21255;DHT22;10785;50.674;17.954;2022-09-19T05:34:41;8.70;99.90
21255;DHT22;10785;50.674;17.954;2022-09-19T05:37:49;8.60;99.90
21255;DHT22;10785;50.674;17.954;2022-09-19T05:40:54;8.50;99.90
21255;DHT22;10785;50.674;17.954;2022-09-19T05:43:41;8.50;99.90
21255;DHT22;10785;50.674;17.954;2022-09-19T05:46:11;8.50;99.90
21255;DHT22;10785;50.674;17.954;2022-09-19T05:48:42;8.50;99.90
21255;DHT22;10785;50.674;17.954;2022-09-19T05:51:11;8.50;99.90
21255;DHT22;10785;50.674;17.954;2022-09-19T05:53:41;8.60;99.90
21255;DHT22;10785;50.674;17.954;2022-09-19T05:56:48;8.60;99.90
21255;DHT22;10785;50.674;17.954;2022-09-19T05:59:22;8.70;1.00
21255;DHT22;10785;50.674;17.954;2022-09-19T06:01:51;8.60;1.00
21255;DHT22;10785;50.674;17.954;2022-09-19T06:04:38;8.60;1.00
21255;DHT22;10785;50.674;17.954;2022-09-19T06:07:09;8.60;1.00
21255;DHT22;10785;50.674;17.954;2022-09-19T06:09:42;8.50;1.00
21255;DHT22;10785;50.674;17.954;2022-09-19T06:12:12;8.50;1.00
21255;DHT22;10785;50.674;17.954;2022-09-19T06:14:41;8.40;1.00
21255;DHT22;10785;50.674;17.954;2022-09-19T06:17:12;8.40;1.00
21255;DHT22;10785;50.674;17.954;2022-09-19T06:19:57;8.30;1.00
21255;DHT22;10785;50.674;17.954;2022-09-19T06:22:46;8.30;1.00
21255;DHT22;10785;50.674;17.954;2022-09-19T06:25:20;8.20;1.00
21255;DHT22;10785;50.674;17.954;2022-09-19T06:27:52;8.10;1.00
21255;DHT22;10785;50.674;17.954;2022-09-19T06:30:21;8.10;1.00
21255;DHT22;10785;50.674;17.954;2022-09-19T06:33:01;8.00;1.00
21255;DHT22;10785;50.674;17.954;2022-09-19T06:35:42;8.00;1.00
21255;DHT22;10785;50.674;17.954;2022-09-19T06:38:11;8.00;99.90
21255;DHT22;10785;50.674;17.954;2022-09-19T06:40:42;8.00;99.90
21255;DHT22;10785;50.674;17.954;2022-09-19T06:43:41;8.00;1.00
21255;DHT22;10785;50.674;17.954;2022-09-19T06:46:33;8.00;1.00
21255;DHT22;10785;50.674;17.954;2022-09-19T06:49:09;8.00;1.00
21255;DHT22;10785;50.674;17.954;2022-09-19T06:51:50;8.00;99.90
21255;DHT22;10785;50.674;17.954;2022-09-19T06:54:20;8.00;99.90
21255;DHT22;10785;50.674;17.954;2022-09-19T06:56:51;8.10;99.90
21255;DHT22;10785;50.674;17.954;2022-09-19T06:59:20;8.10;99.90
21255;DHT22;10785;50.674;17.954;2022-09-19T07:01:49;8.30;99.90
21255;DHT22;10785;50.674;17.954;2022-09-19T07:04:18;8.40;99.90
21255;DHT22;10785;50.674;17.954;2022-09-19T07:06:55;8.60;99.90
21255;DHT22;10785;50.674;17.954;2022-09-19T07:09:24;8.70;99.90
21255;DHT22;10785;50.674;17.954;2022-09-19T07:11:55;8.70;99.90
21255;DHT22;10785;50.674;17.954;2022-09-19T07:14:27;8.80;99.90
21255;DHT22;10785;50.674;17.954;2022-09-19T07:16:58;8.90;99.90
21255;DHT22;10785;50.674;17.954;2022-09-19T07:19:27;9.00;99.90
21255;DHT22;10785;50.674;17.954;2022-09-19T07:22:30;9.00;99.90
21255;DHT22;10785;50.674;17.954;2022-09-19T07:25:26;9.10;99.90
21255;DHT22;10785;50.674;17.954;2022-09-19T07:28:04;9.20;99.90
21255;DHT22;10785;50.674;17.954;2022-09-19T07:30:36;9.10;99.90
21255;DHT22;10785;50.674;17.954;2022-09-19T07:33:07;9.30;99.90
21255;DHT22;10785;50.674;17.954;2022-09-19T07:35:37;9.40;1.00
21255;DHT22;10785;50.674;17.954;2022-09-19T07:38:11;9.40;1.00
21255;DHT22;10785;50.674;17.954;2022-09-19T07:41:01;9.50;99.90
21255;DHT22;10785;50.674;17.954;2022-09-19T07:43:39;9.50;99.90
21255;DHT22;10785;50.674;17.954;2022-09-19T07:46:36;9.60;99.90
21255;DHT22;10785;50.674;17.954;2022-09-19T07:49:42;9.90;99.90
21255;DHT22;10785;50.674;17.954;2022-09-19T07:52:23;10.10;99.90
21255;DHT22;10785;50.674;17.954;2022-09-19T07:54:52;10.20;1.00
21255;DHT22;10785;50.674;17.954;2022-09-19T07:57:21;10.30;28.00
21255;DHT22;10785;50.674;17.954;2022-09-19T07:59:51;10.40;1.00
21255;DHT22;10785;50.674;17.954;2022-09-19T08:02:20;10.70;1.00
21255;DHT22;10785;50.674;17.954;2022-09-19T08:04:51;10.50;1.00
21255;DHT22;10785;50.674;17.954;2022-09-19T08:07:21;10.60;1.00
21255;DHT22;10785;50.674;17.954;2022-09-19T08:09:50;10.50;1.00
21255;DHT22;10785;50.674;17.954;2022-09-19T08:12:23;10.40;99.90
21255;DHT22;10785;50.674;17.954;2022-09-19T08:15:06;10.10;87.90
21255;DHT22;10785;50.674;17.954;2022-09-19T08:17:35;10.00;99.90
21255;DHT22;10785;50.674;17.954;2022-09-19T08:20:04;10.00;1.00
21255;DHT22;10785;50.674;17.954;2022-09-19T08:22:38;10.00;99.90
21255;DHT22;10785;50.674;17.954;2022-09-19T08:25:09;10.10;99.90
21255;DHT22;10785;50.674;17.954;2022-09-19T08:27:43;10.40;99.90
21255;DHT22;10785;50.674;17.954;2022-09-19T08:30:13;10.40;1.00
21255;DHT22;10785;50.674;17.954;2022-09-19T08:32:44;10.40;69.90
21255;DHT22;10785;50.674;17.954;2022-09-19T08:35:14;10.40;79.00
21255;DHT22;10785;50.674;17.954;2022-09-19T08:37:44;10.20;1.00
21255;DHT22;10785;50.674;17.954;2022-09-19T08:40:15;10.10;1.00
21255;DHT22;10785;50.674;17.954;2022-09-19T08:43:04;10.00;1.00
21255;DHT22;10785;50.674;17.954;2022-09-19T08:46:06;10.00;1.00
21255;DHT22;10785;50.674;17.954;2022-09-19T08:48:50;10.00;99.90
21255;DHT22;10785;50.674;17.954;2022-09-19T08:51:26;9.90;1.00
21255;DHT22;10785;50.674;17.954;2022-09-19T08:54:03;9.70;99.90
21255;DHT22;10785;50.674;17.954;2022-09-19T08:56:36;9.80;89.50
21255;DHT22;10785;50.674;17.954;2022-09-19T08:59:10;9.90;99.90
21255;DHT22;10785;50.674;17.954;2022-09-19T09:01:51;10.10;1.00
21255;DHT22;10785;50.674;17.954;2022-09-19T09:05:03;10.50;99.90
21255;DHT22;10785;50.674;17.954;2022-09-19T09:07:41;11.00;1.00
21255;DHT22;10785;50.674;17.954;2022-09-19T09:10:42;11.30;1.00
21255;DHT22;10785;50.674;17.954;2022-09-19T09:13:30;11.30;1.00
21255;DHT22;10785;50.674;17.954;2022-09-19T09:16:30;11.60;1.00
21255;DHT22;10785;50.674;17.954;2022-09-19T09:19:25;11.90;1.00
21255;DHT22;10785;50.674;17.954;2022-09-19T09:21:59;11.70;99.90
21255;DHT22;10785;50.674;17.954;2022-09-19T09:24:46;11.70;1.00
21255;DHT22;10785;50.674;17.954;2022-09-19T09:27:53;11.30;1.00
21255;DHT22;10785;50.674;17.954;2022-09-19T09:30:33;11.20;1.00
21255;DHT22;10785;50.674;17.954;2022-09-19T09:33:10;11.30;1.00
21255;DHT22;10785;50.674;17.954;2022-09-19T09:35:45;11.40;1.00
21255;DHT22;10785;50.674;17.954;2022-09-19T09:38:24;11.40;1.00
21255;DHT22;10785;50.674;17.954;2022-09-19T09:41:06;11.50;1.00
21255;DHT22;10785;50.674;17.954;2022-09-19T09:44:00;11.30;99.90
21255;DHT22;10785;50.674;17.954;2022-09-19T09:46:47;11.10;99.90
21255;DHT22;10785;50.674;17.954;2022-09-19T09:49:25;11.10;1.00
21255;DHT22;10785;50.674;17.954;2022-09-19T09:52:09;11.20;99.90
21255;DHT22;10785;50.674;17.954;2022-09-19T09:54:52;11.20;99.90
21255;DHT22;10785;50.674;17.954;2022-09-19T09:57:49;11.10;99.90
21255;DHT22;10785;50.674;17.954;2022-09-19T10:00:21;11.10;99.90
21255;DHT22;10785;50.674;17.954;2022-09-19T10:03:18;11.10;99.90
21255;DHT22;10785;50.674;17.954;2022-09-19T10:06:27;11.10;99.90
21255;DHT22;10785;50.674;17.954;2022-09-19T10:09:04;11.20;99.90
21255;DHT22;10785;50.674;17.954;2022-09-19T10:11:41;11.30;99.90
21255;DHT22;10785;50.674;17.954;2022-09-19T10:14:35;11.40;99.90
21255;DHT22;10785;50.674;17.954;2022-09-19T10:17:24;11.40;99.90
21255;DHT22;10785;50.674;17.954;2022-09-19T10:19:57;11.30;99.90
21255;DHT22;10785;50.674;17.954;2022-09-19T10:22:29;11.20;99.90
21255;DHT22;10785;50.674;17.954;2022-09-19T10:25:10;11.10;11.00
21255;DHT22;10785;50.674;17.954;2022-09-19T10:27:43;10.90;99.90
21255;DHT22;10785;50.674;17.954;2022-09-19T10:30:34;10.90;1.00
21255;DHT22;10785;50.674;17.954;2022-09-19T10:33:26;10.90;1.00
21255;DHT22;10785;50.674;17.954;2022-09-19T10:36:04;11.00;99.90
21255;DHT22;10785;50.674;17.954;2022-09-19T10:38:47;11.00;99.90
21255;DHT22;10785;50.674;17.954;2022-09-19T10:41:20;11.20;99.90
21255;DHT22;10785;50.674;17.954;2022-09-19T10:43:53;11.30;99.90
21255;DHT22;10785;50.674;17.954;2022-09-19T10:46:28;11.40;99.90
21255;DHT22;10785;50.674;17.954;2022-09-19T10:49:21;11.40;99.90
21255;DHT22;10785;50.674;17.954;2022-09-19T10:51:52;11.20;99.90
21255;DHT22;10785;50.674;17.954;2022-09-19T10:54:30;11.00;99.90
21255;DHT22;10785;50.674;17.954;2022-09-19T10:57:00;11.00;99.90
21255;DHT22;10785;50.674;17.954;2022-09-19T10:59:30;11.00;43.20
21255;DHT22;10785;50.674;17.954;2022-09-19T11:02:18;11.10;99.90
21255;DHT22;10785;50.674;17.954;2022-09-19T11:04:53;11.10;99.90
21255;DHT22;10785;50.674;17.954;2022-09-19T11:07:44;11.30;99.90
21255;DHT22;10785;50.674;17.954;2022-09-19T11:10:37;11.60;99.90
21255;DHT22;10785;50.674;17.954;2022-09-19T11:13:15;11.70;99.90
21255;DHT22;10785;50.674;17.954;2022-09-19T11:16:18;11.70;99.90
21255;DHT22;10785;50.674;17.954;2022-09-19T11:19:05;11.70;99.90
21255;DHT22;10785;50.674;17.954;2022-09-19T11:21:49;11.70;1.00
21255;DHT22;10785;50.674;17.954;2022-09-19T11:24:53;11.80;1.00
21255;DHT22;10785;50.674;17.954;2022-09-19T11:27:35;11.80;1.00
21255;DHT22;10785;50.674;17.954;2022-09-19T11:30:13;11.90;1.00
21255;DHT22;10785;50.674;17.954;2022-09-19T11:36:38;11.80;1.00
21255;DHT22;10785;50.674;17.954;2022-09-19T11:39:15;11.60;1.00
21255;DHT22;10785;50.674;17.954;2022-09-19T11:42:15;11.40;1.00
21255;DHT22;10785;50.674;17.954;2022-09-19T11:44:58;10.90;1.00
21255;DHT22;10785;50.674;17.954;2022-09-19T11:47:54;10.30;99.90
21255;DHT22;10785;50.674;17.954;2022-09-19T11:50:39;10.20;99.90
21255;DHT22;10785;50.674;17.954;2022-09-19T11:53:26;10.30;1.00
21255;DHT22;10785;50.674;17.954;2022-09-19T11:59:15;10.90;99.90
21255;DHT22;10785;50.674;17.954;2022-09-19T12:01:54;11.10;99.90
21255;DHT22;10785;50.674;17.954;2022-09-19T12:04:37;11.50;99.90
21255;DHT22;10785;50.674;17.954;2022-09-19T12:07:21;11.50;99.90
21255;DHT22;10785;50.674;17.954;2022-09-19T12:10:02;11.50;99.90
21255;DHT22;10785;50.674;17.954;2022-09-19T12:12:39;11.50;99.90
21255;DHT22;10785;50.674;17.954;2022-09-19T12:15:36;11.50;99.90
21255;DHT22;10785;50.674;17.954;2022-09-19T12:18:11;11.60;1.00
21255;DHT22;10785;50.674;17.954;2022-09-19T12:20:46;11.70;99.90
21255;DHT22;10785;50.674;17.954;2022-09-19T12:23:21;11.70;99.90
21255;DHT22;10785;50.674;17.954;2022-09-19T12:26:18;11.70;1.00
21255;DHT22;10785;50.674;17.954;2022-09-19T12:28:53;11.70;99.90
21255;DHT22;10785;50.674;17.954;2022-09-19T12:31:27;11.70;99.90
21255;DHT22;10785;50.674;17.954;2022-09-19T12:34:04;11.70;99.90
21255;DHT22;10785;50.674;17.954;2022-09-19T12:36:45;11.90;1.00
21255;DHT22;10785;50.674;17.954;2022-09-19T12:39:18;12.00;1.00
21255;DHT22;10785;50.674;17.954;2022-09-19T12:41:52;12.00;99.90
21255;DHT22;10785;50.674;17.954;2022-09-19T12:44:25;12.00;1.00
21255;DHT22;10785;50.674;17.954;2022-09-19T12:46:59;11.90;1.00
21255;DHT22;10785;50.674;17.954;2022-09-19T12:49:57;12.00;1.00
21255;DHT22;10785;50.674;17.954;2022-09-19T12:52:31;12.00;1.00
21255;DHT22;10785;50.674;17.954;2022-09-19T12:55:06;12.00;1.00
21255;DHT22;10785;50.674;17.954;2022-09-19T12:57:48;12.00;1.00
21255;DHT22;10785;50.674;17.954;2022-09-19T13:00:19;12.00;1.00
21255;DHT22;10785;50.674;17.954;2022-09-19T13:02:50;12.10;99.90
21255;DHT22;10785;50.674;17.954;2022-09-19T13:05:27;12.30;99.90
21255;DHT22;10785;50.674;17.954;2022-09-19T13:08:05;12.20;1.00
21255;DHT22;10785;50.674;17.954;2022-09-19T13:10:38;12.20;1.00
21255;DHT22;10785;50.674;17.954;2022-09-19T13:13:12;12.00;1.00
21255;DHT22;10785;50.674;17.954;2022-09-19T13:15:49;12.00;1.00
21255;DHT22;10785;50.674;17.954;2022-09-19T13:18:19;11.90;1.00
21255;DHT22;10785;50.674;17.954;2022-09-19T13:21:07;11.90;1.00
21255;DHT22;10785;50.674;17.954;2022-09-19T13:23:57;11.90;1.00
21255;DHT22;10785;50.674;17.954;2022-09-19T13:26:28;11.70;99.90
21255;DHT22;10785;50.674;17.954;2022-09-19T13:29:04;11.40;1.00
21255;DHT22;10785;50.674;17.954;2022-09-19T13:31:57;11.30;1.00
21255;DHT22;10785;50.674;17.954;2022-09-19T13:34:38;11.20;1.00
21255;DHT22;10785;50.674;17.954;2022-09-19T13:37:47;11.20;1.00
21255;DHT22;10785;50.674;17.954;2022-09-19T13:40:40;11.10;1.00
21255;DHT22;10785;50.674;17.954;2022-09-19T13:43:28;11.00;1.00
21255;DHT22;10785;50.674;17.954;2022-09-19T13:46:04;11.10;1.00
21255;DHT22;10785;50.674;17.954;2022-09-19T13:48:43;11.10;1.00
21255;DHT22;10785;50.674;17.954;2022-09-19T13:51:27;11.10;1.00
21255;DHT22;10785;50.674;17.954;2022-09-19T13:54:34;11.20;1.00
21255;DHT22;10785;50.674;17.954;2022-09-19T13:57:11;11.30;1.00
21255;DHT22;10785;50.674;17.954;2022-09-19T13:59:48;11.50;99.90
21255;DHT22;10785;50.674;17.954;2022-09-19T14:02:22;11.40;1.00
21255;DHT22;10785;50.674;17.954;2022-09-19T14:04:58;11.50;1.00
21255;DHT22;10785;50.674;17.954;2022-09-19T14:07:37;11.50;1.00
21255;DHT22;10785;50.674;17.954;2022-09-19T14:10:35;11.50;1.00
21255;DHT22;10785;50.674;17.954;2022-09-19T14:13:33;11.70;26.90
21255;DHT22;10785;50.674;17.954;2022-09-19T14:18:51;11.80;99.90
21255;DHT22;10785;50.674;17.954;2022-09-19T14:21:51;11.80;1.00
21255;DHT22;10785;50.674;17.954;2022-09-19T14:24:39;11.90;99.90
21255;DHT22;10785;50.674;17.954;2022-09-19T14:30:19;11.70;99.90
21255;DHT22;10785;50.674;17.954;2022-09-19T14:32:59;11.70;99.90
21255;DHT22;10785;50.674;17.954;2022-09-19T14:35:42;11.50;1.00
21255;DHT22;10785;50.674;17.954;2022-09-19T14:38:38;11.40;1.00
21255;DHT22;10785;50.674;17.954;2022-09-19T14:41:17;11.10;77.20
21255;DHT22;10785;50.674;17.954;2022-09-19T14:47:02;10.70;1.00
21255;DHT22;10785;50.674;17.954;2022-09-19T14:49:39;10.60;1.00
21255;DHT22;10785;50.674;17.954;2022-09-19T14:52:15;10.60;1.00
21255;DHT22;10785;50.674;17.954;2022-09-19T14:54:50;10.60;1.00
21255;DHT22;10785;50.674;17.954;2022-09-19T14:57:22;10.60;99.90
21255;DHT22;10785;50.674;17.954;2022-09-19T14:59:52;10.70;99.90
21255;DHT22;10785;50.674;17.954;2022-09-19T15:02:26;10.70;1.00
21255;DHT22;10785;50.674;17.954;2022-09-19T15:05:01;10.80;99.90
21255;DHT22;10785;50.674;17.954;2022-09-19T15:07:32;10.80;1.00
21255;DHT22;10785;50.674;17.954;2022-09-19T15:10:17;10.90;1.00
21255;DHT22;10785;50.674;17.954;2022-09-19T15:12:46;10.90;1.00
21255;DHT22;10785;50.674;17.954;2022-09-19T15:15:15;11.00;1.00
21255;DHT22;10785;50.674;17.954;2022-09-19T15:17:45;11.00;1.00
21255;DHT22;10785;50.674;17.954;2022-09-19T15:20:16;11.10;99.90
21255;DHT22;10785;50.674;17.954;2022-09-19T15:22:49;11.10;1.00
21255;DHT22;10785;50.674;17.954;2022-09-19T15:25:23;11.10;1.00
21255;DHT22;10785;50.674;17.954;2022-09-19T15:27:54;11.10;1.00
21255;DHT22;10785;50.674;17.954;2022-09-19T15:30:27;11.10;1.00
21255;DHT22;10785;50.674;17.954;2022-09-19T15:33:00;11.10;1.00
21255;DHT22;10785;50.674;17.954;2022-09-19T15:35:33;11.20;1.00
21255;DHT22;10785;50.674;17.954;2022-09-19T15:38:13;11.20;1.00
21255;DHT22;10785;50.674;17.954;2022-09-19T15:40:45;11.10;1.00
21255;DHT22;10785;50.674;17.954;2022-09-19T15:43:14;11.10;1.00
21255;DHT22;10785;50.674;17.954;2022-09-19T15:45:45;11.00;1.00
21255;DHT22;10785;50.674;17.954;2022-09-19T15:48:22;11.00;99.90
21255;DHT22;10785;50.674;17.954;2022-09-19T15:50:53;11.00;84.00
21255;DHT22;10785;50.674;17.954;2022-09-19T15:53:28;11.00;1.00
21255;DHT22;10785;50.674;17.954;2022-09-19T15:56:03;10.90;99.90
21255;DHT22;10785;50.674;17.954;2022-09-19T15:58:37;10.90;99.90
21255;DHT22;10785;50.674;17.954;2022-09-19T16:01:10;10.80;1.00
21255;DHT22;10785;50.674;17.954;2022-09-19T16:03:48;10.60;99.90
21255;DHT22;10785;50.674;17.954;2022-09-19T16:06:24;10.50;1.00
21255;DHT22;10785;50.674;17.954;2022-09-19T16:09:11;10.40;1.00
21255;DHT22;10785;50.674;17.954;2022-09-19T16:11:42;10.40;1.00
21255;DHT22;10785;50.674;17.954;2022-09-19T16:14:17;10.30;1.00
21255;DHT22;10785;50.674;17.954;2022-09-19T16:16:46;10.30;99.90
21255;DHT22;10785;50.674;17.954;2022-09-19T16:19:41;10.30;1.00
21255;DHT22;10785;50.674;17.954;2022-09-19T16:22:11;10.30;1.00
21255;DHT22;10785;50.674;17.954;2022-09-19T16:24:44;10.30;1.00
21255;DHT22;10785;50.674;17.954;2022-09-19T16:27:13;10.30;1.00
21255;DHT22;10785;50.674;17.954;2022-09-19T16:29:47;10.20;57.30
21255;DHT22;10785;50.674;17.954;2022-09-19T16:32:18;10.20;99.90
21255;DHT22;10785;50.674;17.954;2022-09-19T16:34:52;10.20;99.90
21255;DHT22;10785;50.674;17.954;2022-09-19T16:37:25;10.20;99.90
21255;DHT22;10785;50.674;17.954;2022-09-19T16:39:55;10.20;99.90
21255;DHT22;10785;50.674;17.954;2022-09-19T16:42:29;10.20;1.00
21255;DHT22;10785;50.674;17.954;2022-09-19T16:45:12;10.20;1.00
21255;DHT22;10785;50.674;17.954;2022-09-19T16:47:41;10.10;1.00
21255;DHT22;10785;50.674;17.954;2022-09-19T16:50:12;10.10;1.00
21255;DHT22;10785;50.674;17.954;2022-09-19T16:52:44;10.10;1.00